sensor_id;sensor_type;location;lat;lon;timestamp;P1;durP1;ratioP1;P2;durP2;ratioP2
67816;SDS011;54614;47.576;7.524;2023-04-30T00:00:21;3.97;;;2.10;;
67816;SDS011;54614;47.576;7.524;2023-04-30T00:02:47;4.10;;;2.00;;
67816;SDS011;54614;47.576;7.524;2023-04-30T00:05:13;5.28;;;2.08;;
67816;SDS011;54614;47.576;7.524;2023-04-30T00:07:38;3.63;;;2.28;;
67816;SDS011;54614;47.576;7.524;2023-04-30T00:10:07;2.50;;;2.30;;
67816;SDS011;54614;47.576;7.524;2023-04-30T00:12:36;3.90;;;2.20;;
67816;SDS011;54614;47.576;7.524;2023-04-30T00:15:03;2.05;;;1.88;;
67816;SDS011;54614;47.576;7.524;2023-04-30T00:17:29;3.67;;;2.20;;
67816;SDS011;54614;47.576;7.524;2023-04-30T00:19:55;3.47;;;2.25;;
67816;SDS011;54614;47.576;7.524;2023-04-30T00:22:20;5.53;;;2.00;;
67816;SDS011;54614;47.576;7.524;2023-04-30T00:24:46;3.90;;;2.50;;
67816;SDS011;54614;47.576;7.524;2023-04-30T00:27:12;3.35;;;2.10;;
67816;SDS011;54614;47.576;7.524;2023-04-30T00:29:38;3.85;;;2.10;;
67816;SDS011;54614;47.576;7.524;2023-04-30T00:32:05;2.97;;;2.10;;
67816;SDS011;54614;47.576;7.524;2023-04-30T00:34:30;2.72;;;2.17;;
67816;SDS011;54614;47.576;7.524;2023-04-30T00:36:56;4.70;;;2.20;;
67816;SDS011;54614;47.576;7.524;2023-04-30T00:39:22;4.40;;;2.20;;
67816;SDS011;54614;47.576;7.524;2023-04-30T00:41:48;2.30;;;2.10;;
67816;SDS011;54614;47.576;7.524;2023-04-30T00:44:14;3.10;;;2.20;;
67816;SDS011;54614;47.576;7.524;2023-04-30T00:46:40;4.50;;;2.10;;
67816;SDS011;54614;47.576;7.524;2023-04-30T00:49:05;2.88;;;1.90;;
67816;SDS011;54614;47.576;7.524;2023-04-30T00:51:32;3.28;;;2.00;;
67816;SDS011;54614;47.576;7.524;2023-04-30T00:54:00;2.03;;;1.85;;
67816;SDS011;54614;47.576;7.524;2023-04-30T00:56:27;2.15;;;1.92;;
67816;SDS011;54614;47.576;7.524;2023-04-30T00:58:55;2.60;;;1.90;;
67816;SDS011;54614;47.576;7.524;2023-04-30T01:01:25;4.70;;;2.10;;
67816;SDS011;54614;47.576;7.524;2023-04-30T01:03:55;4.40;;;1.83;;
67816;SDS011;54614;47.576;7.524;2023-04-30T01:06:21;3.88;;;1.90;;
67816;SDS011;54614;47.576;7.524;2023-04-30T01:08:50;2.22;;;2.03;;
67816;SDS011;54614;47.576;7.524;2023-04-30T01:20:03;2.75;;;2.08;;
67816;SDS011;54614;47.576;7.524;2023-04-30T01:25:30;2.88;;;1.95;;
67816;SDS011;54614;47.576;7.524;2023-04-30T01:28:01;2.17;;;2.00;;
67816;SDS011;54614;47.576;7.524;2023-04-30T01:30:48;5.60;;;1.95;;
67816;SDS011;54614;47.576;7.524;2023-04-30T01:33:15;2.33;;;2.13;;
67816;SDS011;54614;47.576;7.524;2023-04-30T01:49:54;2.88;;;2.20;;
67816;SDS011;54614;47.576;7.524;2023-04-30T01:52:49;2.83;;;2.08;;
67816;SDS011;54614;47.576;7.524;2023-04-30T01:58:06;2.72;;;1.90;;
67816;SDS011;54614;47.576;7.524;2023-04-30T02:00:39;3.92;;;1.88;;
67816;SDS011;54614;47.576;7.524;2023-04-30T02:03:05;2.17;;;2.08;;
67816;SDS011;54614;47.576;7.524;2023-04-30T02:05:31;4.65;;;2.00;;
67816;SDS011;54614;47.576;7.524;2023-04-30T02:07:57;4.43;;;1.90;;
67816;SDS011;54614;47.576;7.524;2023-04-30T02:10:24;3.83;;;2.08;;
67816;SDS011;54614;47.576;7.524;2023-04-30T02:12:51;2.60;;;1.77;;
67816;SDS011;54614;47.576;7.524;2023-04-30T02:15:18;1.95;;;1.70;;
67816;SDS011;54614;47.576;7.524;2023-04-30T02:17:44;2.65;;;1.70;;
67816;SDS011;54614;47.576;7.524;2023-04-30T02:20:10;2.40;;;1.80;;
67816;SDS011;54614;47.576;7.524;2023-04-30T02:22:36;3.53;;;1.70;;
67816;SDS011;54614;47.576;7.524;2023-04-30T02:25:02;4.05;;;2.20;;
67816;SDS011;54614;47.576;7.524;2023-04-30T02:27:29;3.13;;;1.92;;
67816;SDS011;54614;47.576;7.524;2023-04-30T02:29:57;3.95;;;2.00;;
67816;SDS011;54614;47.576;7.524;2023-04-30T02:32:24;2.72;;;1.90;;
67816;SDS011;54614;47.576;7.524;2023-04-30T02:34:50;3.85;;;2.00;;
67816;SDS011;54614;47.576;7.524;2023-04-30T02:37:16;4.63;;;1.90;;
67816;SDS011;54614;47.576;7.524;2023-04-30T02:39:42;2.00;;;1.88;;
67816;SDS011;54614;47.576;7.524;2023-04-30T02:42:08;2.22;;;2.03;;
67816;SDS011;54614;47.576;7.524;2023-04-30T02:44:34;3.97;;;1.95;;
67816;SDS011;54614;47.576;7.524;2023-04-30T02:47:00;2.28;;;1.98;;
67816;SDS011;54614;47.576;7.524;2023-04-30T02:49:26;2.72;;;1.80;;
67816;SDS011;54614;47.576;7.524;2023-04-30T02:51:53;3.63;;;1.75;;
67816;SDS011;54614;47.576;7.524;2023-04-30T02:54:19;2.00;;;1.77;;
67816;SDS011;54614;47.576;7.524;2023-04-30T02:56:45;2.13;;;1.90;;
67816;SDS011;54614;47.576;7.524;2023-04-30T02:59:11;4.93;;;1.80;;
67816;SDS011;54614;47.576;7.524;2023-04-30T03:01:37;1.75;;;1.65;;
67816;SDS011;54614;47.576;7.524;2023-04-30T03:04:03;1.80;;;1.70;;
67816;SDS011;54614;47.576;7.524;2023-04-30T03:06:30;1.92;;;1.80;;
67816;SDS011;54614;47.576;7.524;2023-04-30T03:08:56;4.15;;;1.70;;
67816;SDS011;54614;47.576;7.524;2023-04-30T03:11:23;1.80;;;1.70;;
67816;SDS011;54614;47.576;7.524;2023-04-30T03:13:48;1.90;;;1.80;;
67816;SDS011;54614;47.576;7.524;2023-04-30T03:16:18;2.70;;;1.92;;
67816;SDS011;54614;47.576;7.524;2023-04-30T03:18:45;2.03;;;1.90;;
67816;SDS011;54614;47.576;7.524;2023-04-30T03:21:15;2.05;;;1.73;;
67816;SDS011;54614;47.576;7.524;2023-04-30T03:23:40;2.65;;;1.88;;
67816;SDS011;54614;47.576;7.524;2023-04-30T03:26:06;2.13;;;1.88;;
67816;SDS011;54614;47.576;7.524;2023-04-30T03:28:32;2.13;;;1.80;;
67816;SDS011;54614;47.576;7.524;2023-04-30T03:31:00;2.42;;;1.80;;
67816;SDS011;54614;47.576;7.524;2023-04-30T03:33:29;3.30;;;1.70;;
67816;SDS011;54614;47.576;7.524;2023-04-30T03:35:58;2.22;;;1.90;;
67816;SDS011;54614;47.576;7.524;2023-04-30T03:38:24;1.80;;;1.67;;
67816;SDS011;54614;47.576;7.524;2023-04-30T03:40:50;5.38;;;1.80;;
67816;SDS011;54614;47.576;7.524;2023-04-30T03:43:15;1.70;;;1.60;;
67816;SDS011;54614;47.576;7.524;2023-04-30T03:45:41;2.40;;;1.70;;
67816;SDS011;54614;47.576;7.524;2023-04-30T03:48:07;2.53;;;1.83;;
67816;SDS011;54614;47.576;7.524;2023-04-30T03:50:33;2.58;;;1.85;;
67816;SDS011;54614;47.576;7.524;2023-04-30T03:52:59;2.15;;;1.60;;
67816;SDS011;54614;47.576;7.524;2023-04-30T03:55:25;2.05;;;1.85;;
67816;SDS011;54614;47.576;7.524;2023-04-30T03:57:51;2.13;;;1.92;;
67816;SDS011;54614;47.576;7.524;2023-04-30T04:00:17;2.20;;;1.90;;
67816;SDS011;54614;47.576;7.524;2023-04-30T04:02:43;1.90;;;1.80;;
67816;SDS011;54614;47.576;7.524;2023-04-30T04:05:09;2.47;;;1.83;;
67816;SDS011;54614;47.576;7.524;2023-04-30T04:07:35;1.83;;;1.70;;
67816;SDS011;54614;47.576;7.524;2023-04-30T04:10:01;2.65;;;1.80;;
67816;SDS011;54614;47.576;7.524;2023-04-30T04:12:27;1.90;;;1.80;;
67816;SDS011;54614;47.576;7.524;2023-04-30T04:14:53;2.08;;;1.73;;
67816;SDS011;54614;47.576;7.524;2023-04-30T04:17:19;2.25;;;1.70;;
67816;SDS011;54614;47.576;7.524;2023-04-30T04:19:44;1.60;;;1.50;;
67816;SDS011;54614;47.576;7.524;2023-04-30T04:22:10;3.42;;;1.65;;
67816;SDS011;54614;47.576;7.524;2023-04-30T04:24:36;1.60;;;1.50;;
67816;SDS011;54614;47.576;7.524;2023-04-30T04:27:02;1.73;;;1.63;;
67816;SDS011;54614;47.576;7.524;2023-04-30T04:29:28;2.03;;;1.77;;
67816;SDS011;54614;47.576;7.524;2023-04-30T04:31:54;3.17;;;1.75;;
67816;SDS011;54614;47.576;7.524;2023-04-30T04:34:20;3.63;;;1.70;;
67816;SDS011;54614;47.576;7.524;2023-04-30T04:36:46;1.98;;;1.88;;
67816;SDS011;54614;47.576;7.524;2023-04-30T04:39:12;3.15;;;1.90;;
67816;SDS011;54614;47.576;7.524;2023-04-30T04:41:38;1.90;;;1.80;;
67816;SDS011;54614;47.576;7.524;2023-04-30T04:44:05;3.15;;;1.60;;
67816;SDS011;54614;47.576;7.524;2023-04-30T04:46:31;2.10;;;1.90;;
67816;SDS011;54614;47.576;7.524;2023-04-30T04:48:59;2.25;;;1.70;;
67816;SDS011;54614;47.576;7.524;2023-04-30T04:51:25;1.70;;;1.60;;
67816;SDS011;54614;47.576;7.524;2023-04-30T04:53:51;1.90;;;1.80;;
67816;SDS011;54614;47.576;7.524;2023-04-30T04:56:17;1.90;;;1.80;;
67816;SDS011;54614;47.576;7.524;2023-04-30T04:58:42;1.70;;;1.60;;
67816;SDS011;54614;47.576;7.524;2023-04-30T05:01:09;2.08;;;1.80;;
67816;SDS011;54614;47.576;7.524;2023-04-30T05:03:35;1.92;;;1.70;;
67816;SDS011;54614;47.576;7.524;2023-04-30T05:06:01;2.13;;;1.83;;
67816;SDS011;54614;47.576;7.524;2023-04-30T05:08:28;1.70;;;1.60;;
67816;SDS011;54614;47.576;7.524;2023-04-30T05:10:54;1.83;;;1.70;;
67816;SDS011;54614;47.576;7.524;2023-04-30T05:13:19;2.20;;;2.00;;
67816;SDS011;54614;47.576;7.524;2023-04-30T05:15:46;3.78;;;1.90;;
67816;SDS011;54614;47.576;7.524;2023-04-30T05:18:15;1.90;;;1.80;;
67816;SDS011;54614;47.576;7.524;2023-04-30T05:20:41;2.42;;;1.60;;
67816;SDS011;54614;47.576;7.524;2023-04-30T05:23:06;4.07;;;2.00;;
67816;SDS011;54614;47.576;7.524;2023-04-30T05:25:32;3.00;;;1.90;;
67816;SDS011;54614;47.576;7.524;2023-04-30T05:28:00;2.67;;;1.83;;
67816;SDS011;54614;47.576;7.524;2023-04-30T05:30:26;4.32;;;1.90;;
67816;SDS011;54614;47.576;7.524;2023-04-30T05:32:51;2.90;;;1.60;;
67816;SDS011;54614;47.576;7.524;2023-04-30T05:35:18;2.17;;;1.90;;
67816;SDS011;54614;47.576;7.524;2023-04-30T05:37:44;2.45;;;1.85;;
67816;SDS011;54614;47.576;7.524;2023-04-30T05:40:10;2.08;;;1.88;;
67816;SDS011;54614;47.576;7.524;2023-04-30T05:42:37;3.22;;;1.90;;
67816;SDS011;54614;47.576;7.524;2023-04-30T05:45:04;3.53;;;1.90;;
67816;SDS011;54614;47.576;7.524;2023-04-30T05:47:32;3.92;;;1.88;;
67816;SDS011;54614;47.576;7.524;2023-04-30T05:49:58;3.05;;;1.90;;
67816;SDS011;54614;47.576;7.524;2023-04-30T05:52:23;2.58;;;1.85;;
67816;SDS011;54614;47.576;7.524;2023-04-30T05:54:49;1.75;;;1.65;;
67816;SDS011;54614;47.576;7.524;2023-04-30T05:57:15;2.10;;;1.90;;
67816;SDS011;54614;47.576;7.524;2023-04-30T05:59:41;2.40;;;1.90;;
67816;SDS011;54614;47.576;7.524;2023-04-30T06:02:07;6.70;;;1.90;;
67816;SDS011;54614;47.576;7.524;2023-04-30T06:04:33;2.10;;;1.88;;
67816;SDS011;54614;47.576;7.524;2023-04-30T06:07:00;2.70;;;1.77;;
67816;SDS011;54614;47.576;7.524;2023-04-30T06:09:25;2.65;;;1.70;;
67816;SDS011;54614;47.576;7.524;2023-04-30T06:11:51;2.03;;;1.80;;
67816;SDS011;54614;47.576;7.524;2023-04-30T06:14:17;2.10;;;1.90;;
67816;SDS011;54614;47.576;7.524;2023-04-30T06:16:44;2.58;;;1.80;;
67816;SDS011;54614;47.576;7.524;2023-04-30T06:19:13;2.35;;;1.80;;
67816;SDS011;54614;47.576;7.524;2023-04-30T06:21:39;1.70;;;1.60;;
67816;SDS011;54614;47.576;7.524;2023-04-30T06:24:07;3.15;;;1.73;;
67816;SDS011;54614;47.576;7.524;2023-04-30T06:26:33;1.90;;;1.75;;
67816;SDS011;54614;47.576;7.524;2023-04-30T06:28:59;2.50;;;1.80;;
67816;SDS011;54614;47.576;7.524;2023-04-30T06:31:25;2.33;;;1.90;;
67816;SDS011;54614;47.576;7.524;2023-04-30T06:33:51;2.72;;;1.77;;
67816;SDS011;54614;47.576;7.524;2023-04-30T06:36:17;1.80;;;1.70;;
67816;SDS011;54614;47.576;7.524;2023-04-30T06:38:43;4.53;;;2.08;;
67816;SDS011;54614;47.576;7.524;2023-04-30T06:41:10;2.55;;;1.90;;
67816;SDS011;54614;47.576;7.524;2023-04-30T06:43:37;2.92;;;1.80;;
67816;SDS011;54614;47.576;7.524;2023-04-30T06:46:03;1.92;;;1.75;;
67816;SDS011;54614;47.576;7.524;2023-04-30T06:48:30;3.17;;;1.80;;
67816;SDS011;54614;47.576;7.524;2023-04-30T06:50:57;2.15;;;1.88;;
67816;SDS011;54614;47.576;7.524;2023-04-30T06:53:23;2.28;;;1.92;;
67816;SDS011;54614;47.576;7.524;2023-04-30T06:55:49;2.67;;;1.90;;
67816;SDS011;54614;47.576;7.524;2023-04-30T06:58:16;6.68;;;2.03;;
67816;SDS011;54614;47.576;7.524;2023-04-30T07:00:43;4.93;;;1.92;;
67816;SDS011;54614;47.576;7.524;2023-04-30T07:03:09;2.50;;;1.65;;
67816;SDS011;54614;47.576;7.524;2023-04-30T07:05:35;5.75;;;1.70;;
67816;SDS011;54614;47.576;7.524;2023-04-30T07:08:01;7.47;;;2.13;;
67816;SDS011;54614;47.576;7.524;2023-04-30T07:10:28;12.40;;;2.22;;
67816;SDS011;54614;47.576;7.524;2023-04-30T07:12:55;8.85;;;2.13;;
67816;SDS011;54614;47.576;7.524;2023-04-30T07:15:21;7.28;;;2.65;;
67816;SDS011;54614;47.576;7.524;2023-04-30T07:17:47;6.10;;;2.08;;
67816;SDS011;54614;47.576;7.524;2023-04-30T07:20:13;8.18;;;2.00;;
67816;SDS011;54614;47.576;7.524;2023-04-30T07:22:40;9.75;;;2.10;;
67816;SDS011;54614;47.576;7.524;2023-04-30T07:25:10;4.03;;;2.10;;
67816;SDS011;54614;47.576;7.524;2023-04-30T07:27:39;24.45;;;2.33;;
67816;SDS011;54614;47.576;7.524;2023-04-30T07:30:05;17.35;;;2.63;;
67816;SDS011;54614;47.576;7.524;2023-04-30T07:32:34;10.43;;;2.33;;
67816;SDS011;54614;47.576;7.524;2023-04-30T07:35:01;16.33;;;2.30;;
67816;SDS011;54614;47.576;7.524;2023-04-30T07:37:28;8.85;;;2.35;;
67816;SDS011;54614;47.576;7.524;2023-04-30T07:39:54;18.13;;;2.42;;
67816;SDS011;54614;47.576;7.524;2023-04-30T07:42:19;23.42;;;2.60;;
67816;SDS011;54614;47.576;7.524;2023-04-30T07:44:45;18.92;;;2.83;;
67816;SDS011;54614;47.576;7.524;2023-04-30T07:47:12;30.25;;;3.10;;
67816;SDS011;54614;47.576;7.524;2023-04-30T07:49:38;12.50;;;2.42;;
67816;SDS011;54614;47.576;7.524;2023-04-30T07:52:05;18.45;;;2.70;;
67816;SDS011;54614;47.576;7.524;2023-04-30T07:54:34;29.02;;;2.83;;
67816;SDS011;54614;47.576;7.524;2023-04-30T07:57:02;22.42;;;2.95;;
67816;SDS011;54614;47.576;7.524;2023-04-30T07:59:29;11.73;;;2.58;;
67816;SDS011;54614;47.576;7.524;2023-04-30T08:01:56;7.40;;;2.20;;
67816;SDS011;54614;47.576;7.524;2023-04-30T08:04:22;21.35;;;3.15;;
67816;SDS011;54614;47.576;7.524;2023-04-30T08:06:47;12.90;;;4.50;;
67816;SDS011;54614;47.576;7.524;2023-04-30T08:09:13;13.40;;;5.72;;
67816;SDS011;54614;47.576;7.524;2023-04-30T08:11:39;13.95;;;6.25;;
67816;SDS011;54614;47.576;7.524;2023-04-30T08:14:06;9.57;;;6.45;;
67816;SDS011;54614;47.576;7.524;2023-04-30T08:16:32;8.48;;;5.03;;
67816;SDS011;54614;47.576;7.524;2023-04-30T08:18:58;8.77;;;5.55;;
67816;SDS011;54614;47.576;7.524;2023-04-30T08:21:24;10.10;;;4.80;;
67816;SDS011;54614;47.576;7.524;2023-04-30T08:23:52;4.65;;;3.92;;
67816;SDS011;54614;47.576;7.524;2023-04-30T08:26:19;8.90;;;4.53;;
67816;SDS011;54614;47.576;7.524;2023-04-30T08:28:45;11.98;;;3.95;;
67816;SDS011;54614;47.576;7.524;2023-04-30T08:31:11;14.52;;;4.05;;
67816;SDS011;54614;47.576;7.524;2023-04-30T08:33:37;15.77;;;4.05;;
67816;SDS011;54614;47.576;7.524;2023-04-30T08:36:04;10.93;;;3.70;;
67816;SDS011;54614;47.576;7.524;2023-04-30T08:38:30;8.82;;;3.53;;
67816;SDS011;54614;47.576;7.524;2023-04-30T08:41:00;16.40;;;3.70;;
67816;SDS011;54614;47.576;7.524;2023-04-30T08:43:37;19.98;;;3.95;;
67816;SDS011;54614;47.576;7.524;2023-04-30T08:46:05;17.50;;;3.80;;
67816;SDS011;54614;47.576;7.524;2023-04-30T08:48:31;12.32;;;3.70;;
67816;SDS011;54614;47.576;7.524;2023-04-30T08:50:58;12.05;;;3.95;;
67816;SDS011;54614;47.576;7.524;2023-04-30T08:53:26;7.90;;;3.90;;
67816;SDS011;54614;47.576;7.524;2023-04-30T08:55:53;12.57;;;4.10;;
67816;SDS011;54614;47.576;7.524;2023-04-30T08:58:19;8.35;;;4.68;;
67816;SDS011;54614;47.576;7.524;2023-04-30T09:00:45;9.90;;;6.38;;
67816;SDS011;54614;47.576;7.524;2023-04-30T09:03:10;9.48;;;6.22;;
67816;SDS011;54614;47.576;7.524;2023-04-30T09:05:36;10.15;;;5.90;;
67816;SDS011;54614;47.576;7.524;2023-04-30T09:08:02;9.60;;;6.10;;
67816;SDS011;54614;47.576;7.524;2023-04-30T09:10:31;8.52;;;5.70;;
67816;SDS011;54614;47.576;7.524;2023-04-30T09:12:59;9.57;;;6.90;;
67816;SDS011;54614;47.576;7.524;2023-04-30T09:15:33;13.77;;;5.30;;
67816;SDS011;54614;47.576;7.524;2023-04-30T09:18:11;20.38;;;4.45;;
67816;SDS011;54614;47.576;7.524;2023-04-30T09:20:57;9.10;;;3.90;;
67816;SDS011;54614;47.576;7.524;2023-04-30T09:23:29;7.25;;;3.70;;
67816;SDS011;54614;47.576;7.524;2023-04-30T09:25:55;8.05;;;3.83;;
67816;SDS011;54614;47.576;7.524;2023-04-30T09:28:21;8.77;;;3.65;;
67816;SDS011;54614;47.576;7.524;2023-04-30T09:30:50;9.32;;;3.35;;
67816;SDS011;54614;47.576;7.524;2023-04-30T09:33:17;4.13;;;3.33;;
67816;SDS011;54614;47.576;7.524;2023-04-30T09:35:43;8.35;;;3.25;;
67816;SDS011;54614;47.576;7.524;2023-04-30T09:38:29;9.60;;;3.30;;
67816;SDS011;54614;47.576;7.524;2023-04-30T09:40:57;7.85;;;3.13;;
67816;SDS011;54614;47.576;7.524;2023-04-30T09:43:26;6.60;;;2.70;;
67816;SDS011;54614;47.576;7.524;2023-04-30T09:45:53;10.10;;;3.28;;
67816;SDS011;54614;47.576;7.524;2023-04-30T09:48:22;5.22;;;3.33;;
67816;SDS011;54614;47.576;7.524;2023-04-30T09:50:53;4.97;;;3.03;;
67816;SDS011;54614;47.576;7.524;2023-04-30T09:53:19;6.88;;;3.10;;
67816;SDS011;54614;47.576;7.524;2023-04-30T09:55:46;7.85;;;3.20;;
67816;SDS011;54614;47.576;7.524;2023-04-30T09:58:16;7.43;;;2.90;;
67816;SDS011;54614;47.576;7.524;2023-04-30T10:00:46;7.90;;;2.60;;
67816;SDS011;54614;47.576;7.524;2023-04-30T10:03:14;6.90;;;2.65;;
67816;SDS011;54614;47.576;7.524;2023-04-30T10:05:41;7.97;;;2.70;;
67816;SDS011;54614;47.576;7.524;2023-04-30T10:08:15;7.00;;;2.80;;
67816;SDS011;54614;47.576;7.524;2023-04-30T10:11:12;2.83;;;2.60;;
67816;SDS011;54614;47.576;7.524;2023-04-30T10:13:50;4.68;;;2.63;;
67816;SDS011;54614;47.576;7.524;2023-04-30T10:19:19;3.75;;;2.42;;
67816;SDS011;54614;47.576;7.524;2023-04-30T10:21:57;8.27;;;2.80;;
67816;SDS011;54614;47.576;7.524;2023-04-30T10:24:26;11.82;;;7.25;;
67816;SDS011;54614;47.576;7.524;2023-04-30T10:26:52;26.08;;;20.35;;
67816;SDS011;54614;47.576;7.524;2023-04-30T10:29:19;118.45;;;74.45;;
67816;SDS011;54614;47.576;7.524;2023-04-30T10:31:46;129.75;;;82.32;;
67816;SDS011;54614;47.576;7.524;2023-04-30T10:37:30;69.40;;;43.05;;
67816;SDS011;54614;47.576;7.524;2023-04-30T10:40:15;40.10;;;26.70;;
67816;SDS011;54614;47.576;7.524;2023-04-30T10:42:48;29.42;;;19.02;;
67816;SDS011;54614;47.576;7.524;2023-04-30T10:45:19;20.33;;;14.23;;
67816;SDS011;54614;47.576;7.524;2023-04-30T10:48:05;18.52;;;13.02;;
67816;SDS011;54614;47.576;7.524;2023-04-30T10:50:31;13.57;;;8.98;;
67816;SDS011;54614;47.576;7.524;2023-04-30T10:53:05;10.07;;;6.25;;
67816;SDS011;54614;47.576;7.524;2023-04-30T10:55:31;9.13;;;6.03;;
67816;SDS011;54614;47.576;7.524;2023-04-30T10:57:58;8.23;;;6.18;;
67816;SDS011;54614;47.576;7.524;2023-04-30T11:00:24;8.15;;;6.13;;
67816;SDS011;54614;47.576;7.524;2023-04-30T11:02:56;7.68;;;5.82;;
67816;SDS011;54614;47.576;7.524;2023-04-30T11:05:36;9.05;;;5.10;;
67816;SDS011;54614;47.576;7.524;2023-04-30T11:08:03;9.57;;;5.40;;
67816;SDS011;54614;47.576;7.524;2023-04-30T11:10:35;6.20;;;4.75;;
67816;SDS011;54614;47.576;7.524;2023-04-30T11:13:04;11.82;;;4.93;;
67816;SDS011;54614;47.576;7.524;2023-04-30T11:15:38;5.70;;;4.25;;
67816;SDS011;54614;47.576;7.524;2023-04-30T11:18:06;5.40;;;4.60;;
67816;SDS011;54614;47.576;7.524;2023-04-30T11:20:36;9.63;;;5.65;;
67816;SDS011;54614;47.576;7.524;2023-04-30T11:23:16;10.73;;;6.03;;
67816;SDS011;54614;47.576;7.524;2023-04-30T11:25:48;8.15;;;6.07;;
67816;SDS011;54614;47.576;7.524;2023-04-30T11:28:19;8.07;;;5.80;;
67816;SDS011;54614;47.576;7.524;2023-04-30T11:30:55;8.23;;;5.43;;
67816;SDS011;54614;47.576;7.524;2023-04-30T11:33:23;6.40;;;4.50;;
67816;SDS011;54614;47.576;7.524;2023-04-30T11:35:57;5.18;;;4.00;;
67816;SDS011;54614;47.576;7.524;2023-04-30T11:38:25;6.55;;;4.00;;
67816;SDS011;54614;47.576;7.524;2023-04-30T11:40:59;5.15;;;3.83;;
67816;SDS011;54614;47.576;7.524;2023-04-30T11:43:27;4.43;;;3.60;;
67816;SDS011;54614;47.576;7.524;2023-04-30T11:48:45;3.55;;;3.15;;
67816;SDS011;54614;47.576;7.524;2023-04-30T11:51:19;4.35;;;3.30;;
67816;SDS011;54614;47.576;7.524;2023-04-30T11:53:48;6.35;;;4.10;;
67816;SDS011;54614;47.576;7.524;2023-04-30T11:56:17;21.27;;;10.57;;
67816;SDS011;54614;47.576;7.524;2023-04-30T11:58:45;17.30;;;9.55;;
67816;SDS011;54614;47.576;7.524;2023-04-30T12:01:12;33.90;;;17.70;;
67816;SDS011;54614;47.576;7.524;2023-04-30T12:03:43;27.23;;;14.80;;
67816;SDS011;54614;47.576;7.524;2023-04-30T12:06:12;33.80;;;15.63;;
67816;SDS011;54614;47.576;7.524;2023-04-30T12:08:53;68.72;;;34.83;;
67816;SDS011;54614;47.576;7.524;2023-04-30T12:11:21;81.40;;;38.63;;
67816;SDS011;54614;47.576;7.524;2023-04-30T12:14:10;75.70;;;39.92;;
67816;SDS011;54614;47.576;7.524;2023-04-30T12:19:06;84.50;;;49.10;;
67816;SDS011;54614;47.576;7.524;2023-04-30T12:21:32;82.22;;;48.42;;
67816;SDS011;54614;47.576;7.524;2023-04-30T12:23:59;104.35;;;62.38;;
67816;SDS011;54614;47.576;7.524;2023-04-30T12:26:33;91.32;;;54.45;;
67816;SDS011;54614;47.576;7.524;2023-04-30T12:29:39;77.22;;;47.33;;
67816;SDS011;54614;47.576;7.524;2023-04-30T12:31:56;66.18;;;41.83;;
67816;SDS011;54614;47.576;7.524;2023-04-30T12:34:25;70.18;;;37.17;;
67816;SDS011;54614;47.576;7.524;2023-04-30T12:36:52;37.70;;;24.33;;
67816;SDS011;54614;47.576;7.524;2023-04-30T12:39:22;35.60;;;19.42;;
67816;SDS011;54614;47.576;7.524;2023-04-30T12:41:48;25.58;;;16.80;;
67816;SDS011;54614;47.576;7.524;2023-04-30T12:44:24;25.60;;;15.55;;
67816;SDS011;54614;47.576;7.524;2023-04-30T12:46:55;34.60;;;16.33;;
67816;SDS011;54614;47.576;7.524;2023-04-30T12:49:28;32.88;;;18.35;;
67816;SDS011;54614;47.576;7.524;2023-04-30T12:51:58;34.05;;;20.73;;
67816;SDS011;54614;47.576;7.524;2023-04-30T12:54:37;32.00;;;20.52;;
67816;SDS011;54614;47.576;7.524;2023-04-30T12:57:08;40.80;;;21.70;;
67816;SDS011;54614;47.576;7.524;2023-04-30T12:59:37;52.47;;;28.83;;
67816;SDS011;54614;47.576;7.524;2023-04-30T13:02:27;53.08;;;29.60;;
67816;SDS011;54614;47.576;7.524;2023-04-30T13:04:56;53.75;;;28.20;;
67816;SDS011;54614;47.576;7.524;2023-04-30T13:07:24;44.30;;;25.42;;
67816;SDS011;54614;47.576;7.524;2023-04-30T13:09:50;32.63;;;19.48;;
67816;SDS011;54614;47.576;7.524;2023-04-30T13:12:16;32.75;;;19.48;;
67816;SDS011;54614;47.576;7.524;2023-04-30T13:14:43;33.25;;;17.20;;
67816;SDS011;54614;47.576;7.524;2023-04-30T13:17:09;30.88;;;16.60;;
67816;SDS011;54614;47.576;7.524;2023-04-30T13:19:37;33.20;;;17.02;;
67816;SDS011;54614;47.576;7.524;2023-04-30T13:22:03;34.22;;;17.35;;
67816;SDS011;54614;47.576;7.524;2023-04-30T13:24:29;33.00;;;16.90;;
67816;SDS011;54614;47.576;7.524;2023-04-30T13:26:55;28.70;;;16.33;;
67816;SDS011;54614;47.576;7.524;2023-04-30T13:29:23;42.88;;;16.95;;
67816;SDS011;54614;47.576;7.524;2023-04-30T13:31:49;32.80;;;15.15;;
67816;SDS011;54614;47.576;7.524;2023-04-30T13:34:14;29.33;;;14.63;;
67816;SDS011;54614;47.576;7.524;2023-04-30T13:36:40;34.65;;;14.00;;
67816;SDS011;54614;47.576;7.524;2023-04-30T13:39:06;24.70;;;13.80;;
67816;SDS011;54614;47.576;7.524;2023-04-30T13:41:32;24.45;;;12.52;;
67816;SDS011;54614;47.576;7.524;2023-04-30T13:43:58;24.92;;;12.07;;
67816;SDS011;54614;47.576;7.524;2023-04-30T13:46:24;28.02;;;11.48;;
67816;SDS011;54614;47.576;7.524;2023-04-30T13:48:50;24.98;;;11.50;;
67816;SDS011;54614;47.576;7.524;2023-04-30T13:51:17;20.15;;;10.75;;
67816;SDS011;54614;47.576;7.524;2023-04-30T13:53:44;22.50;;;10.55;;
67816;SDS011;54614;47.576;7.524;2023-04-30T13:56:09;24.23;;;10.35;;
67816;SDS011;54614;47.576;7.524;2023-04-30T13:58:36;22.08;;;10.05;;
67816;SDS011;54614;47.576;7.524;2023-04-30T14:01:02;20.02;;;9.57;;
67816;SDS011;54614;47.576;7.524;2023-04-30T14:03:28;18.58;;;9.27;;
67816;SDS011;54614;47.576;7.524;2023-04-30T14:05:55;22.02;;;9.05;;
67816;SDS011;54614;47.576;7.524;2023-04-30T14:08:21;24.58;;;8.93;;
67816;SDS011;54614;47.576;7.524;2023-04-30T14:10:47;21.15;;;9.60;;
67816;SDS011;54614;47.576;7.524;2023-04-30T14:13:13;17.15;;;8.63;;
67816;SDS011;54614;47.576;7.524;2023-04-30T14:15:39;17.38;;;8.70;;
67816;SDS011;54614;47.576;7.524;2023-04-30T14:18:05;17.15;;;8.55;;
67816;SDS011;54614;47.576;7.524;2023-04-30T14:20:31;17.63;;;8.40;;
67816;SDS011;54614;47.576;7.524;2023-04-30T14:22:57;14.73;;;7.90;;
67816;SDS011;54614;47.576;7.524;2023-04-30T14:25:22;17.25;;;7.82;;
67816;SDS011;54614;47.576;7.524;2023-04-30T14:27:48;12.10;;;7.28;;
67816;SDS011;54614;47.576;7.524;2023-04-30T14:30:17;11.90;;;7.30;;
67816;SDS011;54614;47.576;7.524;2023-04-30T14:32:43;12.95;;;6.75;;
67816;SDS011;54614;47.576;7.524;2023-04-30T14:35:08;14.13;;;6.93;;
67816;SDS011;54614;47.576;7.524;2023-04-30T14:37:35;12.10;;;6.55;;
67816;SDS011;54614;47.576;7.524;2023-04-30T14:40:01;11.82;;;6.22;;
67816;SDS011;54614;47.576;7.524;2023-04-30T14:42:26;10.57;;;6.68;;
67816;SDS011;54614;47.576;7.524;2023-04-30T14:44:52;11.60;;;6.57;;
67816;SDS011;54614;47.576;7.524;2023-04-30T14:47:18;10.35;;;5.95;;
67816;SDS011;54614;47.576;7.524;2023-04-30T14:49:45;9.02;;;5.55;;
67816;SDS011;54614;47.576;7.524;2023-04-30T14:52:12;10.98;;;5.75;;
67816;SDS011;54614;47.576;7.524;2023-04-30T14:54:38;9.50;;;5.93;;
67816;SDS011;54614;47.576;7.524;2023-04-30T14:57:03;8.18;;;5.68;;
67816;SDS011;54614;47.576;7.524;2023-04-30T14:59:29;8.90;;;6.07;;
67816;SDS011;54614;47.576;7.524;2023-04-30T15:01:57;8.23;;;5.38;;
67816;SDS011;54614;47.576;7.524;2023-04-30T15:04:23;6.75;;;4.95;;
67816;SDS011;54614;47.576;7.524;2023-04-30T15:06:48;7.32;;;5.30;;
67816;SDS011;54614;47.576;7.524;2023-04-30T15:09:14;7.03;;;4.70;;
67816;SDS011;54614;47.576;7.524;2023-04-30T15:11:40;6.93;;;4.90;;
67816;SDS011;54614;47.576;7.524;2023-04-30T15:14:06;6.05;;;4.63;;
67816;SDS011;54614;47.576;7.524;2023-04-30T15:16:32;8.95;;;4.88;;
67816;SDS011;54614;47.576;7.524;2023-04-30T15:18:58;9.70;;;4.93;;
67816;SDS011;54614;47.576;7.524;2023-04-30T15:21:24;5.57;;;4.50;;
67816;SDS011;54614;47.576;7.524;2023-04-30T15:23:50;6.32;;;4.70;;